createdAt,value
2022-12-01T00:00:16.801Z,82.00
2022-12-01T00:05:22.030Z,82.30
2022-12-01T00:10:28.994Z,82.40
2022-12-01T00:15:35.847Z,82.60
2022-12-01T00:20:41.332Z,82.60
2022-12-01T00:25:45.050Z,82.70
2022-12-01T00:30:49.110Z,82.90
2022-12-01T00:36:00.532Z,83.00
2022-12-01T00:41:04.515Z,83.10
2022-12-01T00:46:08.224Z,83.30
2022-12-01T00:51:13.392Z,83.30
2022-12-01T00:56:17.436Z,82.80
2022-12-01T01:01:21.593Z,81.90
2022-12-01T01:06:26.807Z,81.50
2022-12-01T01:11:30.616Z,81.10
2022-12-01T01:16:35.220Z,80.50
2022-12-01T01:21:40.958Z,80.30
2022-12-01T01:26:44.553Z,80.00
2022-12-01T01:31:48.057Z,79.60
2022-12-01T01:36:53.065Z,79.20
2022-12-01T01:41:56.840Z,79.10
2022-12-01T01:47:00.669Z,79.10
2022-12-01T01:52:06.664Z,79.10
2022-12-01T01:57:13.660Z,79.00
2022-12-01T02:02:17.593Z,79.00
2022-12-01T02:07:22.824Z,78.90
2022-12-01T02:12:50.825Z,78.90
2022-12-01T02:18:11.871Z,78.90
2022-12-01T02:24:05.445Z,79.00
2022-12-01T02:30:12.912Z,79.20
2022-12-01T02:46:22.204Z,79.60
2022-12-01T02:51:33.010Z,79.70
2022-12-01T03:07:50.964Z,80.30
2022-12-01T03:13:21.267Z,80.20
2022-12-01T03:18:36.126Z,80.30
2022-12-01T03:23:47.224Z,80.50
2022-12-01T03:28:56.745Z,80.60
2022-12-01T03:34:08.661Z,80.80
2022-12-01T03:39:20.115Z,80.90
2022-12-01T03:44:31.069Z,81.10
2022-12-01T03:49:35.519Z,81.00
2022-12-01T03:54:53.179Z,80.70
2022-12-01T03:59:57.192Z,80.20
2022-12-01T04:05:00.899Z,79.80
2022-12-01T04:10:08.838Z,79.30
2022-12-01T04:15:15.258Z,79.10
2022-12-01T04:20:19.486Z,79.00
2022-12-01T04:25:24.380Z,78.80
2022-12-01T04:30:28.130Z,78.70
2022-12-01T04:35:31.953Z,78.70
2022-12-01T04:40:37.291Z,78.70
2022-12-01T04:45:41.016Z,78.70
2022-12-01T04:50:44.630Z,78.80
2022-12-01T04:55:49.668Z,78.80
2022-12-01T05:00:53.441Z,78.90
2022-12-01T05:06:03.695Z,79.00
2022-12-01T05:11:12.424Z,79.10
2022-12-01T05:16:20.258Z,79.20
2022-12-01T05:21:23.781Z,79.40
2022-12-01T05:26:28.817Z,79.50
2022-12-01T05:31:32.910Z,79.50
2022-12-01T05:36:37.125Z,79.80
2022-12-01T05:41:42.207Z,80.00
2022-12-01T05:46:45.843Z,80.00
2022-12-01T05:51:49.563Z,80.10
2022-12-01T05:56:54.701Z,80.20
2022-12-01T06:01:58.514Z,80.30
2022-12-01T06:07:02.255Z,80.40
2022-12-01T06:12:07.868Z,80.50
2022-12-01T06:17:12.194Z,80.70
2022-12-01T06:22:15.960Z,80.80
2022-12-01T06:27:21.040Z,80.90
2022-12-01T06:32:24.630Z,81.00
2022-12-01T06:37:29.035Z,81.30
2022-12-01T06:42:34.125Z,81.70
2022-12-01T06:47:38.045Z,82.20
2022-12-01T06:52:41.902Z,82.00
2022-12-01T06:57:47.002Z,81.80
2022-12-01T07:02:51.069Z,81.80
2022-12-01T07:07:59.318Z,81.60
2022-12-01T07:13:04.853Z,81.60
2022-12-01T07:18:08.402Z,81.60
2022-12-01T07:23:12.186Z,81.70
2022-12-01T07:28:17.150Z,81.60
2022-12-01T07:33:20.784Z,81.70
2022-12-01T07:38:24.459Z,81.90
2022-12-01T07:43:30.577Z,82.30
2022-12-01T07:48:34.632Z,82.20
2022-12-01T07:53:38.759Z,82.10
2022-12-01T07:58:44.350Z,83.00
2022-12-01T08:03:50.652Z,82.00
2022-12-01T08:08:54.579Z,81.50
2022-12-01T08:14:00.016Z,81.00
2022-12-01T08:19:03.563Z,81.30
2022-12-01T08:24:08.577Z,80.10
2022-12-01T08:29:19.770Z,80.00
2022-12-01T08:34:24.472Z,79.90
2022-12-01T08:39:28.313Z,80.50
2022-12-01T08:44:33.677Z,79.90
2022-12-01T08:49:37.399Z,79.90
2022-12-01T08:54:41.074Z,79.90
2022-12-01T08:59:46.792Z,79.90
2022-12-01T09:04:51.225Z,80.50
2022-12-01T09:09:55.129Z,80.10
2022-12-01T09:15:00.004Z,80.30
2022-12-01T09:20:03.856Z,80.40
2022-12-01T09:25:14.722Z,80.10
2022-12-01T09:30:20.274Z,80.30
2022-12-01T09:35:26.186Z,80.20
2022-12-01T09:40:37.358Z,78.10
2022-12-01T09:45:50.003Z,77.50
2022-12-01T09:50:54.368Z,77.60
2022-12-01T09:56:05.897Z,76.20
2022-12-01T10:01:24.380Z,75.30
2022-12-01T10:06:39.752Z,75.40
2022-12-01T10:11:45.856Z,76.00
2022-12-01T10:17:04.689Z,76.10
2022-12-01T10:22:46.891Z,76.70
2022-12-01T10:28:13.766Z,77.30
2022-12-01T10:33:26.901Z,77.50
2022-12-01T10:38:37.337Z,77.70
2022-12-01T10:43:46.589Z,78.60
2022-12-01T10:49:01.113Z,78.00
2022-12-01T10:54:12.225Z,78.20
2022-12-01T10:59:37.837Z,78.50
2022-12-01T11:04:52.663Z,78.60
2022-12-01T11:10:20.098Z,78.70
2022-12-01T11:15:28.290Z,78.90
2022-12-01T11:20:38.135Z,79.00
2022-12-01T11:25:42.057Z,77.60
2022-12-01T11:30:45.904Z,75.70
2022-12-01T11:35:51.794Z,74.70
2022-12-01T11:40:58.875Z,74.50
2022-12-01T11:46:07.071Z,73.20
2022-12-01T11:51:30.067Z,72.60
2022-12-01T11:56:33.908Z,72.10
2022-12-01T12:01:57.262Z,71.40
2022-12-01T12:07:12.434Z,71.10
2022-12-01T12:12:40.850Z,70.90
2022-12-01T12:18:14.125Z,70.30
2022-12-01T12:23:40.975Z,70.40
2022-12-01T12:29:21.155Z,70.70
2022-12-01T12:34:49.106Z,70.60
2022-12-01T12:40:34.183Z,70.20
2022-12-01T12:46:03.804Z,71.30
2022-12-01T12:51:18.863Z,72.00
2022-12-01T12:56:27.821Z,72.80
2022-12-01T13:01:39.787Z,73.30
2022-12-01T13:06:50.318Z,73.70
2022-12-01T13:12:03.148Z,74.00
2022-12-01T13:17:20.681Z,74.50
2022-12-01T13:22:32.194Z,74.70
2022-12-01T13:27:42.852Z,75.00
2022-12-01T13:32:47.967Z,75.50
2022-12-01T13:37:51.891Z,75.30
2022-12-01T13:48:50.060Z,76.10
2022-12-01T13:54:06.467Z,75.90
2022-12-01T14:00:05.831Z,76.20
2022-12-01T14:05:52.095Z,76.20
2022-12-01T14:10:59.827Z,76.40
2022-12-01T14:16:06.569Z,76.40
2022-12-01T14:21:14.204Z,76.70
2022-12-01T14:26:22.509Z,76.90
2022-12-01T14:32:22.908Z,76.90
2022-12-01T14:37:39.315Z,77.10
2022-12-01T14:43:06.174Z,77.20
2022-12-01T14:48:18.380Z,77.40
2022-12-01T14:53:29.323Z,77.50
2022-12-01T14:58:33.937Z,77.70
2022-12-01T15:03:44.713Z,77.80
2022-12-01T15:14:37.447Z,77.80
2022-12-01T15:19:44.092Z,77.80
2022-12-01T15:24:48.102Z,77.90
2022-12-01T15:29:52.645Z,77.80
2022-12-01T15:35:01.934Z,77.90
2022-12-01T15:41:06.198Z,77.90
2022-12-01T15:45:50.504Z,78.00
2022-12-01T15:51:10.195Z,78.90
2022-12-01T15:56:14.605Z,78.20
2022-12-01T16:01:20.952Z,78.20
2022-12-01T16:06:30.666Z,78.30
2022-12-01T16:11:35.191Z,78.20
2022-12-01T16:16:44.543Z,78.50
2022-12-01T16:21:51.916Z,78.30
2022-12-01T16:27:01.022Z,78.40
2022-12-01T16:32:21.524Z,78.40
2022-12-01T16:37:28.771Z,78.50
2022-12-01T16:42:32.473Z,78.60
2022-12-01T16:47:36.103Z,78.60
2022-12-01T16:52:45.246Z,78.80
2022-12-01T16:57:49.737Z,78.80
2022-12-01T17:02:53.700Z,78.80
2022-12-01T17:07:58.927Z,79.50
2022-12-01T17:13:02.671Z,80.10
2022-12-01T17:18:07.547Z,80.60
2022-12-01T17:23:12.940Z,80.40
2022-12-01T17:28:16.559Z,80.00
2022-12-01T17:33:20.448Z,80.70
2022-12-01T17:38:25.477Z,80.20
2022-12-01T17:43:29.252Z,78.50
2022-12-01T17:48:38.181Z,77.30
2022-12-01T17:53:43.419Z,75.70
2022-12-01T17:58:47.259Z,75.00
2022-12-01T18:03:51.584Z,74.90
2022-12-01T18:08:57.662Z,74.70
2022-12-01T18:14:03.007Z,74.90
2022-12-01T18:19:06.531Z,75.90
2022-12-01T18:24:11.995Z,75.30
2022-12-01T18:29:25.828Z,75.60
2022-12-01T18:34:30.442Z,75.70
2022-12-01T18:39:35.916Z,75.80
2022-12-01T18:44:39.981Z,75.90
2022-12-01T18:49:43.593Z,76.70
2022-12-01T18:54:48.780Z,76.10
2022-12-01T18:59:52.492Z,76.30
2022-12-01T19:04:56.146Z,76.60
2022-12-01T19:10:01.166Z,76.90
2022-12-01T19:15:06.020Z,77.10
2022-12-01T19:20:12.014Z,77.40
2022-12-01T19:25:17.233Z,77.50
2022-12-01T19:30:21.078Z,77.70
2022-12-01T19:35:24.840Z,77.90
2022-12-01T19:40:30.364Z,78.00
2022-12-01T19:45:35.558Z,78.20
2022-12-01T19:50:39.179Z,78.40
2022-12-01T19:55:44.265Z,78.40
2022-12-01T20:00:48.000Z,78.50
2022-12-01T20:05:51.632Z,78.50
2022-12-01T20:10:57.397Z,78.60
2022-12-01T20:16:04.729Z,78.60
2022-12-01T20:21:16.324Z,78.70
2022-12-01T20:26:26.183Z,79.50
2022-12-01T20:31:34.943Z,78.90
2022-12-01T20:36:39.401Z,79.00
2022-12-01T20:41:46.649Z,79.20
2022-12-01T20:46:50.358Z,79.30
2022-12-01T20:51:53.960Z,79.40
2022-12-01T20:56:59.805Z,79.50
2022-12-01T21:02:03.556Z,79.50
2022-12-01T21:07:07.388Z,79.60
2022-12-01T21:12:34.997Z,80.30
2022-12-01T21:17:46.874Z,79.50
2022-12-01T21:22:51.686Z,79.50
2022-12-01T21:28:02.296Z,79.60
2022-12-01T21:33:28.123Z,79.60
2022-12-01T21:38:33.893Z,79.50
2022-12-01T21:43:39.186Z,79.30
2022-12-01T21:48:43.954Z,79.00
2022-12-01T21:53:49.131Z,78.80
2022-12-01T21:58:58.846Z,78.70
2022-12-01T22:04:10.521Z,78.70
2022-12-01T22:09:24.813Z,78.70
2022-12-01T22:14:35.413Z,78.80
2022-12-01T22:19:42.498Z,78.90
2022-12-01T22:24:50.013Z,78.80
2022-12-01T22:30:01.363Z,78.90
2022-12-01T22:35:36.520Z,79.40
2022-12-01T22:40:44.074Z,80.00
2022-12-01T22:45:53.790Z,79.90
2022-12-01T22:50:59.448Z,80.10
2022-12-01T22:56:03.330Z,80.40
2022-12-01T23:01:23.800Z,80.30
2022-12-01T23:07:10.235Z,78.90
2022-12-01T23:12:33.399Z,77.90
2022-12-01T23:17:40.589Z,77.50
2022-12-01T23:22:44.378Z,78.40
2022-12-01T23:27:51.366Z,78.60
2022-12-01T23:33:21.888Z,78.70
2022-12-01T23:38:30.449Z,78.80
2022-12-01T23:43:39.371Z,78.70
2022-12-01T23:48:48.778Z,78.80
2022-12-01T23:53:54.067Z,79.00
2022-12-01T23:58:58.480Z,79.00
